Time;durP1;ratioP1;P1;durP2;ratioP2;P2;SDS_P1;SDS_P2;PMS_P1;PMS_P2;Temp;Humidity;BMP_temperature;BMP_pressure;BME280_temperature;BME280_humidity;BME280_pressure;Samples;Min_cycle;Max_cycle;Signal;HPM_P1;HPM_P2
2022/12/08 00:01:47;;;;;;;0.97;0.10;;;1.80;99.90;;;;;;6188085;23;20051;-82
2022/12/08 00:04:13;;;;;;;0.10;0.10;;;1.70;99.90;;;;;;6189145;23;20098;-82
2022/12/08 00:09:38;;;;;;;0.10;0.00;;;2.50;99.90;;;;;;6213843;23;20544;-82
2022/12/08 00:12:11;;;;;;;0.00;0.00;;;1.70;99.90;;;;;;6213754;23;20524;-82
2022/12/08 00:14:40;;;;;;;0.00;0.00;;;1.70;99.90;;;;;;6213720;23;20464;-84
2022/12/08 00:17:08;;;;;;;0.10;0.00;;;1.00;99.90;;;;;;6213766;23;20023;-82
2022/12/08 00:19:34;;;;;;;1.95;0.20;;;1.70;99.90;;;;;;6188358;23;20024;-82
2022/12/08 00:22:00;;;;;;;0.00;0.00;;;1.70;99.90;;;;;;6187707;23;20074;-82
2022/12/08 00:24:30;;;;;;;0.00;0.00;;;1.70;99.90;;;;;;6213574;23;20017;-83
2022/12/08 00:26:56;;;;;;;0.00;0.00;;;2.40;99.90;;;;;;6213380;23;20008;-82
2022/12/08 00:29:22;;;;;;;0.00;0.00;;;1.70;99.90;;;;;;6188629;23;20429;-82
2022/12/08 00:31:47;;;;;;;0.00;0.00;;;2.70;99.90;;;;;;6188822;23;20329;-82
2022/12/08 00:34:14;;;;;;;0.00;0.00;;;1.70;99.90;;;;;;6188798;23;20201;-82
2022/12/08 00:36:40;;;;;;;0.05;0.05;;;2.90;99.90;;;;;;6188813;23;20082;-84
2022/12/08 00:39:07;;;;;;;0.00;0.00;;;2.70;99.90;;;;;;6213135;23;20035;-82
2022/12/08 00:44:18;;;;;;;0.00;0.00;;;1.60;99.90;;;;;;6192377;23;20055;-82
2022/12/08 00:46:44;;;;;;;;;;;1.70;99.90;;;;;;6212434;23;20341;-84
2022/12/08 00:49:09;;;;;;;0.00;0.00;;;2.70;99.90;;;;;;6213291;23;19935;-83
2022/12/08 00:51:36;;;;;;;0.00;0.00;;;1.80;99.90;;;;;;6188773;23;20020;-82
2022/12/08 00:54:02;;;;;;;0.43;0.40;;;1.80;99.90;;;;;;6213120;23;20095;-82
2022/12/08 00:56:28;;;;;;;0.00;0.00;;;1.80;99.90;;;;;;6213728;23;20017;-82
2022/12/08 00:58:54;;;;;;;0.73;0.10;;;2.90;99.90;;;;;;6188370;23;20016;-82
2022/12/08 01:01:20;;;;;;;0.00;0.00;;;2.10;99.90;;;;;;6164166;23;20013;-82
2022/12/08 01:03:45;;;;;;;0.00;0.00;;;1.90;99.90;;;;;;6188806;23;20021;-84
2022/12/08 01:06:11;;;;;;;0.00;0.00;;;1.90;99.90;;;;;;6189254;23;20017;-82
2022/12/08 01:08:38;;;;;;;0.00;0.00;;;2.20;99.90;;;;;;6214402;23;20028;-81
2022/12/08 01:11:11;;;;;;;0.20;0.20;;;2.70;99.90;;;;;;6188085;23;20021;-81
2022/12/08 01:13:37;;;;;;;0.00;0.00;;;2.00;99.90;;;;;;6213953;23;20024;-81
2022/12/08 01:16:03;;;;;;;0.00;0.00;;;2.00;99.90;;;;;;6163458;23;20323;-81
2022/12/08 01:18:29;;;;;;;0.00;0.00;;;2.00;99.90;;;;;;6188951;23;20458;-81
2022/12/08 01:21:00;;;;;;;0.00;0.00;;;3.10;99.90;;;;;;6213472;23;20275;-82
2022/12/08 01:23:27;;;;;;;0.10;0.10;;;2.00;99.90;;;;;;6187494;23;20013;-83
2022/12/08 01:25:52;;;;;;;0.00;0.00;;;2.70;99.90;;;;;;6187461;23;20021;-83
2022/12/08 01:28:18;;;;;;;0.00;0.00;;;3.10;99.90;;;;;;6187934;23;20028;-82
2022/12/08 01:30:44;;;;;;;0.00;0.00;;;1.90;99.90;;;;;;6163161;23;20096;-83
2022/12/08 01:33:09;;;;;;;0.10;0.10;;;2.10;99.90;;;;;;6187510;23;20024;-82
2022/12/08 01:35:35;;;;;;;0.00;0.00;;;1.90;99.90;;;;;;6188235;23;20016;-83
2022/12/08 01:38:01;;;;;;;0.00;0.00;;;1.90;99.90;;;;;;6187746;23;20127;-82
2022/12/08 01:40:26;;;;;;;0.00;0.00;;;2.90;99.90;;;;;;6162939;23;20464;-83
2022/12/08 01:42:52;;;;;;;0.00;0.00;;;1.90;99.90;;;;;;6187742;23;20020;-83
2022/12/08 01:45:26;;;;;;;0.00;0.00;;;1.90;99.90;;;;;;6163066;23;20016;-82
2022/12/08 01:47:59;;;;;;;0.85;0.15;;;1.90;99.90;;;;;;6212676;23;20048;-83
2022/12/08 01:50:26;;;;;;;0.13;0.05;;;1.90;99.90;;;;;;6213421;23;20024;-83
2022/12/08 01:53:09;;;;;;;0.00;0.00;;;2.10;99.90;;;;;;6212777;23;20068;-85
2022/12/08 01:55:41;;;;;;;0.20;0.10;;;1.90;99.90;;;;;;6188675;23;20111;-83
2022/12/08 01:58:15;;;;;;;0.00;0.00;;;2.00;99.90;;;;;;6212318;23;20016;-83
2022/12/08 02:00:41;;;;;;;0.00;0.00;;;2.30;99.90;;;;;;6187673;23;20020;-83
2022/12/08 02:03:16;;;;;;;0.00;0.00;;;3.10;99.90;;;;;;6162883;23;20017;-83
2022/12/08 02:05:43;;;;;;;0.17;0.00;;;1.10;99.90;;;;;;6213024;23;20055;-82
2022/12/08 02:08:11;;;;;;;0.00;0.00;;;2.90;99.90;;;;;;6186993;23;20012;-83
2022/12/08 02:10:40;;;;;;;0.00;0.00;;;2.10;99.90;;;;;;6212240;23;20405;-83
2022/12/08 02:13:13;;;;;;;0.90;0.10;;;1.90;99.90;;;;;;6187354;23;20075;-83
2022/12/08 02:15:54;;;;;;;0.00;0.00;;;2.00;99.90;;;;;;6212919;23;20017;-83
2022/12/08 02:18:44;;;;;;;0.03;0.03;;;2.00;99.90;;;;;;6187963;23;20059;-83
2022/12/08 02:21:29;;;;;;;0.00;0.00;;;1.90;99.90;;;;;;6212163;23;20017;-83
2022/12/08 02:24:03;;;;;;;0.00;0.00;;;1.90;99.90;;;;;;6188097;23;20074;-85
2022/12/08 02:26:32;;;;;;;0.00;0.00;;;2.00;99.90;;;;;;6212999;23;20021;-83
2022/12/08 02:29:27;;;;;;;0.00;0.00;;;2.00;99.90;;;;;;6212492;23;20087;-83
2022/12/08 02:32:30;;;;;;;0.35;0.20;;;1.90;99.90;;;;;;6187619;23;20020;-83
2022/12/08 02:35:11;;;;;;;0.00;0.00;;;2.00;99.90;;;;;;6212890;23;20503;-84
2022/12/08 02:37:43;;;;;;;0.00;0.00;;;1.90;99.90;;;;;;6188064;23;20445;-83
2022/12/08 02:40:35;;;;;;;0.47;0.30;;;3.00;99.90;;;;;;6212320;23;20024;-83
2022/12/08 02:43:27;;;;;;;0.00;0.00;;;1.90;99.90;;;;;;6196176;23;20208;-83
2022/12/08 02:45:59;;;;;;;0.00;0.00;;;1.90;99.90;;;;;;6187625;23;20500;-83
2022/12/08 02:48:29;;;;;;;0.00;0.00;;;1.90;99.90;;;;;;6187125;23;20044;-83
2022/12/08 02:50:55;;;;;;;0.00;0.00;;;1.90;99.90;;;;;;6187495;23;20016;-83
2022/12/08 02:53:20;;;;;;;0.10;0.10;;;2.80;99.90;;;;;;6212735;23;20028;-82
2022/12/08 02:56:04;;;;;;;0.00;0.00;;;2.00;99.90;;;;;;6213731;23;20051;-82
2022/12/08 02:58:42;;;;;;;0.00;0.00;;;1.80;99.90;;;;;;6188062;23;20059;-83
2022/12/08 03:01:36;;;;;;;0.00;0.00;;;1.80;99.90;;;;;;6212197;23;20013;-83
2022/12/08 03:04:15;;;;;;;0.35;0.17;;;1.80;99.90;;;;;;6187490;23;20017;-84
2022/12/08 03:07:00;;;;;;;0.00;0.00;;;2.70;99.90;;;;;;6212583;23;20457;-82
2022/12/08 03:09:33;;;;;;;0.00;0.00;;;1.80;99.90;;;;;;6213325;23;20091;-83
2022/12/08 03:12:29;;;;;;;0.00;0.00;;;1.80;99.90;;;;;;6213914;23;20051;-82
2022/12/08 03:15:01;;;;;;;0.00;0.00;;;1.80;99.90;;;;;;6215701;23;20342;-82
2022/12/08 03:17:29;;;;;;;0.03;0.00;;;1.80;99.90;;;;;;6214718;23;20009;-83
2022/12/08 03:20:00;;;;;;;0.00;0.00;;;1.80;99.90;;;;;;6215331;23;20049;-82
2022/12/08 03:22:27;;;;;;;0.00;0.00;;;1.90;99.90;;;;;;6188769;23;20446;-83
2022/12/08 03:24:55;;;;;;;0.00;0.00;;;1.90;99.90;;;;;;6214438;23;20024;-83
2022/12/08 03:27:24;;;;;;;0.80;0.10;;;2.90;99.90;;;;;;6163062;23;20024;-82
2022/12/08 03:29:52;;;;;;;0.00;0.00;;;1.90;99.90;;;;;;6214404;23;20345;-82
2022/12/08 03:32:26;;;;;;;0.00;0.00;;;2.00;99.90;;;;;;6213853;23;20527;-82
2022/12/08 03:34:55;;;;;;;0.00;0.00;;;2.30;99.90;;;;;;6189559;23;20016;-83
2022/12/08 03:37:21;;;;;;;0.00;0.00;;;2.60;99.90;;;;;;6213974;23;20461;-84
2022/12/08 03:39:47;;;;;;;0.00;0.00;;;2.20;99.90;;;;;;6188125;23;20016;-83
2022/12/08 03:42:12;;;;;;;0.00;0.00;;;2.50;99.90;;;;;;6213882;23;20433;-82
2022/12/08 03:44:38;;;;;;;0.00;0.00;;;1.90;99.90;;;;;;6164358;23;20023;-83
2022/12/08 03:47:04;;;;;;;0.00;0.00;;;2.90;99.90;;;;;;6164446;23;20025;-83
2022/12/08 03:49:29;;;;;;;0.00;0.00;;;1.90;99.90;;;;;;6213033;23;20027;-83
2022/12/08 03:51:55;;;;;;;0.00;0.00;;;1.90;99.90;;;;;;6213546;23;20017;-83
2022/12/08 03:54:21;;;;;;;0.00;0.00;;;1.90;99.90;;;;;;6187861;23;20357;-83
2022/12/08 03:56:46;;;;;;;0.00;0.00;;;1.90;99.90;;;;;;6188821;23;20020;-83
2022/12/08 03:59:12;;;;;;;0.00;0.00;;;1.80;99.90;;;;;;6188120;23;20024;-83
2022/12/08 04:01:38;;;;;;;0.00;0.00;;;1.70;99.90;;;;;;6188221;23;20067;-83
2022/12/08 04:04:04;;;;;;;0.00;0.00;;;1.80;99.90;;;;;;6213336;23;20021;-83
2022/12/08 04:06:29;;;;;;;0.00;0.00;;;1.70;99.90;;;;;;6188118;23;20020;-83
2022/12/08 04:08:55;;;;;;;0.00;0.00;;;1.70;99.90;;;;;;6163795;23;20017;-83
2022/12/08 04:11:21;;;;;;;0.00;0.00;;;1.70;99.90;;;;;;6187784;23;20039;-83
2022/12/08 04:13:47;;;;;;;0.00;0.00;;;1.60;99.90;;;;;;6188164;23;20025;-83
2022/12/08 04:16:22;;;;;;;0.00;0.00;;;2.60;99.90;;;;;;6213209;23;20019;-83
2022/12/08 04:18:47;;;;;;;0.08;0.08;;;1.60;99.90;;;;;;6188318;23;20025;-83
2022/12/08 04:21:14;;;;;;;0.00;0.00;;;1.50;99.90;;;;;;6162817;23;20059;-83
2022/12/08 04:23:39;;;;;;;0.00;0.00;;;1.50;99.90;;;;;;6164004;23;20342;-84
2022/12/08 04:26:06;;;;;;;0.00;0.00;;;1.60;99.90;;;;;;6213403;23;20016;-83
2022/12/08 04:28:31;;;;;;;0.00;0.00;;;1.50;99.90;;;;;;6212570;23;20036;-83
2022/12/08 04:30:57;;;;;;;0.00;0.00;;;1.50;99.90;;;;;;6188637;23;20539;-83
2022/12/08 04:33:23;;;;;;;0.00;0.00;;;1.50;99.90;;;;;;6187808;23;20017;-83
2022/12/08 04:35:49;;;;;;;0.00;0.00;;;1.40;99.90;;;;;;6188339;23;20062;-83
2022/12/08 04:38:15;;;;;;;0.00;0.00;;;1.40;99.90;;;;;;6188092;23;20051;-84
2022/12/08 04:40:41;;;;;;;0.00;0.00;;;1.40;99.90;;;;;;6164036;23;20031;-83
2022/12/08 04:43:06;;;;;;;0.00;0.00;;;1.60;99.90;;;;;;6188459;23;20017;-83
2022/12/08 04:45:32;;;;;;;0.00;0.00;;;1.50;99.90;;;;;;6188101;23;20020;-83
2022/12/08 04:47:59;;;;;;;0.00;0.00;;;1.50;99.90;;;;;;6187947;23;20016;-83
2022/12/08 04:50:25;;;;;;;0.08;0.08;;;1.50;99.90;;;;;;6212443;23;20020;-83
2022/12/08 04:52:51;;;;;;;0.00;0.00;;;2.10;99.90;;;;;;6214199;23;20047;-83
2022/12/08 04:55:17;;;;;;;0.00;0.00;;;1.50;99.90;;;;;;6213167;23;20083;-84
2022/12/08 04:57:43;;;;;;;0.00;0.00;;;2.10;99.90;;;;;;6189239;23;20040;-83
2022/12/08 05:00:09;;;;;;;0.00;0.00;;;1.50;99.90;;;;;;6213842;23;20397;-83
2022/12/08 05:02:36;;;;;;;0.85;0.10;;;1.50;99.90;;;;;;6188233;23;20016;-83
2022/12/08 05:05:02;;;;;;;0.00;0.00;;;1.60;99.90;;;;;;6164335;23;20028;-82
2022/12/08 05:07:28;;;;;;;0.00;0.00;;;1.50;99.90;;;;;;6188558;23;20021;-83
2022/12/08 05:09:54;;;;;;;0.00;0.00;;;2.00;99.90;;;;;;6164384;23;20020;-83
2022/12/08 05:12:19;;;;;;;0.00;0.00;;;2.10;99.90;;;;;;6163086;23;20092;-84
2022/12/08 05:14:48;;;;;;;0.00;0.00;;;1.60;99.90;;;;;;6163951;23;20048;-83
2022/12/08 05:17:15;;;;;;;0.00;0.00;;;1.60;99.90;;;;;;6213152;23;20066;-83
2022/12/08 05:19:41;;;;;;;0.00;0.00;;;3.00;99.90;;;;;;6213609;23;20334;-83
2022/12/08 05:22:07;;;;;;;0.00;0.00;;;1.70;99.90;;;;;;6188841;23;20012;-84
2022/12/08 05:24:33;;;;;;;0.00;0.00;;;1.70;99.90;;;;;;6187945;23;20117;-84
2022/12/08 05:26:58;;;;;;;0.20;0.10;;;1.60;99.90;;;;;;6212698;23;20024;-83
2022/12/08 05:29:24;;;;;;;0.00;0.00;;;1.70;99.90;;;;;;6187454;23;20023;-84
2022/12/08 05:31:50;;;;;;;0.00;0.00;;;1.70;99.90;;;;;;6212803;23;20052;-83
2022/12/08 05:34:16;;;;;;;0.00;0.00;;;1.70;99.90;;;;;;6211875;23;20013;-84
2022/12/08 05:36:41;;;;;;;0.53;0.07;;;2.50;99.90;;;;;;6186932;23;20329;-84
2022/12/08 05:39:11;;;;;;;0.00;0.00;;;1.80;99.90;;;;;;6213000;23;20091;-83
2022/12/08 05:41:37;;;;;;;0.00;0.00;;;1.80;99.90;;;;;;6212074;23;20019;-84
2022/12/08 05:44:02;;;;;;;0.20;0.20;;;2.30;99.90;;;;;;6213463;23;20087;-84
2022/12/08 05:46:28;;;;;;;0.00;0.00;;;2.10;99.90;;;;;;6188178;23;20021;-84
2022/12/08 05:48:54;;;;;;;0.00;0.00;;;2.90;99.90;;;;;;6213627;23;20052;-84
2022/12/08 05:51:22;;;;;;;1.80;0.03;;;2.90;99.90;;;;;;6162508;23;20063;-83
2022/12/08 05:53:49;;;;;;;0.00;0.00;;;1.70;99.90;;;;;;6212312;23;20013;-84
2022/12/08 05:56:15;;;;;;;0.00;0.00;;;1.70;99.90;;;;;;6212973;23;20020;-84
2022/12/08 05:58:41;;;;;;;0.00;0.00;;;1.70;99.90;;;;;;6187396;23;20017;-84
2022/12/08 06:01:06;;;;;;;0.00;0.00;;;2.90;99.90;;;;;;6187671;23;20017;-84
2022/12/08 06:03:32;;;;;;;0.00;0.00;;;2.40;99.90;;;;;;6187547;23;20028;-84
2022/12/08 06:05:58;;;;;;;0.00;0.00;;;1.90;99.90;;;;;;6187858;23;20059;-84
2022/12/08 06:08:24;;;;;;;0.00;0.00;;;2.50;99.90;;;;;;6162244;23;20035;-83
2022/12/08 06:10:49;;;;;;;0.00;0.00;;;3.00;99.90;;;;;;6186717;23;20017;-84
2022/12/08 06:13:15;;;;;;;0.00;0.00;;;1.70;99.90;;;;;;6187730;23;20016;-84
2022/12/08 06:15:41;;;;;;;0.00;0.00;;;2.40;99.90;;;;;;6211706;23;20013;-84
2022/12/08 06:18:09;;;;;;;0.00;0.00;;;1.70;99.90;;;;;;6213049;23;20020;-84
2022/12/08 06:20:35;;;;;;;0.00;0.00;;;2.80;99.90;;;;;;6187230;23;20016;-84
2022/12/08 06:23:02;;;;;;;0.00;0.00;;;1.70;99.90;;;;;;6212808;23;20408;-84
2022/12/08 06:25:28;;;;;;;0.38;0.10;;;1.70;99.90;;;;;;6212473;23;20015;-85
2022/12/08 06:27:53;;;;;;;0.00;0.00;;;2.70;99.90;;;;;;6187544;23;20048;-84
2022/12/08 06:30:19;;;;;;;0.27;0.03;;;1.70;99.90;;;;;;6162754;23;20456;-84
2022/12/08 06:32:45;;;;;;;0.00;0.00;;;1.60;99.90;;;;;;6162614;23;20012;-84
2022/12/08 06:35:10;;;;;;;0.00;0.00;;;1.70;99.90;;;;;;6162273;23;20021;-83
2022/12/08 06:37:36;;;;;;;0.00;0.00;;;1.70;99.90;;;;;;6161814;23;20052;-84
2022/12/08 06:40:02;;;;;;;0.00;0.00;;;2.80;99.90;;;;;;6187005;23;20103;-84
2022/12/08 06:42:43;;;;;;;0.00;0.00;;;1.60;99.90;;;;;;6212894;23;20013;-84
2022/12/08 06:45:10;;;;;;;0.00;0.00;;;1.60;99.90;;;;;;6190725;23;20061;-84
2022/12/08 06:47:36;;;;;;;0.00;0.00;;;1.60;99.90;;;;;;6189262;23;20070;-84
2022/12/08 06:50:02;;;;;;;0.00;0.00;;;2.70;99.90;;;;;;6165039;23;20343;-83
2022/12/08 06:52:28;;;;;;;0.20;0.10;;;1.60;99.90;;;;;;6215071;23;20020;-83
2022/12/08 06:54:53;;;;;;;0.17;0.10;;;1.60;99.90;;;;;;6189692;23;20095;-83
2022/12/08 06:57:19;;;;;;;0.00;0.00;;;1.60;99.90;;;;;;6164944;23;20020;-83
2022/12/08 06:59:45;;;;;;;0.00;0.00;;;2.20;99.90;;;;;;6214416;23;20020;-84
2022/12/08 07:02:11;;;;;;;0.30;0.30;;;2.00;99.90;;;;;;6214835;23;20337;-83
2022/12/08 07:04:36;;;;;;;0.00;0.00;;;1.70;99.90;;;;;;6165003;23;20021;-84
2022/12/08 07:07:02;;;;;;;0.00;0.00;;;2.80;99.90;;;;;;6189612;23;20066;-83
2022/12/08 07:09:28;;;;;;;0.10;0.03;;;1.60;99.90;;;;;;6215302;23;20346;-83
2022/12/08 07:11:54;;;;;;;0.00;0.00;;;1.90;99.90;;;;;;6163912;23;20071;-83
2022/12/08 07:14:23;;;;;;;0.00;0.00;;;2.30;99.90;;;;;;6190503;23;20017;-83
2022/12/08 07:16:50;;;;;;;0.00;0.00;;;1.60;99.90;;;;;;6190039;23;20453;-84
2022/12/08 07:19:16;;;;;;;0.00;0.00;;;1.60;99.90;;;;;;6215275;23;20024;-83
2022/12/08 07:21:42;;;;;;;0.00;0.00;;;2.20;99.90;;;;;;6189689;23;20016;-84
2022/12/08 07:24:08;;;;;;;0.00;0.00;;;2.70;99.90;;;;;;6188874;23;20330;-83
2022/12/08 07:26:34;;;;;;;0.00;0.00;;;1.60;99.90;;;;;;6189393;23;20019;-83
2022/12/08 07:29:00;;;;;;;0.00;0.00;;;1.60;99.90;;;;;;6213302;23;20016;-84
2022/12/08 07:31:27;;;;;;;0.10;0.10;;;1.60;99.90;;;;;;6214527;23;20023;-84
2022/12/08 07:33:54;;;;;;;0.00;0.00;;;1.60;99.90;;;;;;6188389;23;20021;-82
2022/12/08 07:36:20;;;;;;;0.15;0.10;;;1.60;99.90;;;;;;6214381;23;20059;-83
2022/12/08 07:38:47;;;;;;;0.45;0.17;;;1.60;99.90;;;;;;6213864;23;20031;-83
2022/12/08 07:41:18;;;;;;;0.00;0.00;;;1.60;99.90;;;;;;6214181;23;20031;-83
2022/12/08 07:43:44;;;;;;;0.10;0.10;;;2.10;99.90;;;;;;6214365;23;20018;-83
2022/12/08 07:46:15;;;;;;;0.10;0.10;;;2.20;99.90;;;;;;6217099;23;20019;-83
2022/12/08 07:48:41;;;;;;;0.00;0.00;;;1.60;99.90;;;;;;6214024;23;20021;-83
2022/12/08 07:51:07;;;;;;;0.03;0.00;;;1.60;99.90;;;;;;6214016;23;20115;-83
2022/12/08 07:53:33;;;;;;;0.00;0.00;;;1.60;99.90;;;;;;6213866;23;20467;-84
2022/12/08 07:55:59;;;;;;;0.10;0.10;;;1.60;99.90;;;;;;6213728;23;20289;-84
2022/12/08 07:58:25;;;;;;;0.00;0.00;;;2.50;99.90;;;;;;6192447;23;20082;-84
2022/12/08 08:00:52;;;;;;;0.10;0.10;;;1.60;99.90;;;;;;6188596;23;20099;-83
2022/12/08 08:03:18;;;;;;;;;;;1.50;99.90;;;;;;6214469;23;20020;-82
2022/12/08 08:05:43;;;;;;;0.08;0.08;;;2.40;99.90;;;;;;6188738;23;19942;-88
2022/12/08 08:08:10;;;;;;;0.00;0.00;;;1.50;99.90;;;;;;6164195;23;20021;-86
2022/12/08 08:10:35;;;;;;;0.00;0.00;;;1.40;99.90;;;;;;6188958;23;20015;-82
2022/12/08 08:13:01;;;;;;;0.10;0.00;;;1.30;99.90;;;;;;6212978;23;20367;-82
2022/12/08 08:15:27;;;;;;;0.00;0.00;;;1.40;99.90;;;;;;6164329;23;20095;-83
2022/12/08 08:17:53;;;;;;;0.00;0.00;;;1.30;99.90;;;;;;6188736;23;20017;-83
2022/12/08 08:20:20;;;;;;;0.00;0.00;;;1.20;99.90;;;;;;6164285;23;20476;-82
2022/12/08 08:22:46;;;;;;;;;;;1.90;99.90;;;;;;6214039;23;20437;-83
2022/12/08 08:25:12;;;;;;;0.00;0.00;;;1.10;99.90;;;;;;6213626;23;19958;-82
2022/12/08 08:27:38;;;;;;;0.00;0.00;;;1.10;99.90;;;;;;6213973;23;20021;-82
2022/12/08 08:30:06;;;;;;;0.10;0.10;;;1.10;99.90;;;;;;6188510;23;20157;-82
2022/12/08 08:32:33;;;;;;;0.00;0.00;;;1.10;99.90;;;;;;6212526;23;20017;-82
2022/12/08 08:34:58;;;;;;;;;;;1.70;99.90;;;;;;6213422;23;20020;-82
2022/12/08 08:37:24;;;;;;;0.10;0.10;;;1.10;99.90;;;;;;6163641;23;19916;-82
2022/12/08 08:39:50;;;;;;;0.57;0.17;;;1.40;99.90;;;;;;6188565;23;20013;-82
2022/12/08 08:42:15;;;;;;;1.60;0.30;;;1.50;99.90;;;;;;6213729;23;20016;-82
2022/12/08 08:44:41;;;;;;;0.20;0.20;;;1.80;99.90;;;;;;6163240;23;20415;-82
2022/12/08 08:47:07;;;;;;;0.00;0.00;;;2.10;99.90;;;;;;6213216;23;20337;-82
2022/12/08 08:49:33;;;;;;;0.10;0.10;;;1.00;99.90;;;;;;6188480;23;20013;-82
2022/12/08 08:51:59;;;;;;;0.00;0.00;;;1.50;99.90;;;;;;6188015;23;20127;-82
2022/12/08 08:54:24;;;;;;;0.00;0.00;;;1.00;99.90;;;;;;6213740;23;20013;-83
2022/12/08 08:56:51;;;;;;;0.00;0.00;;;1.00;99.90;;;;;;6187729;23;20100;-82
2022/12/08 08:59:17;;;;;;;0.40;0.10;;;1.00;99.90;;;;;;6188569;23;20024;-82
2022/12/08 09:01:42;;;;;;;0.00;0.00;;;1.00;99.90;;;;;;6188099;23;20017;-82
2022/12/08 09:04:09;;;;;;;0.00;0.00;;;1.00;99.90;;;;;;6188104;23;20024;-83
2022/12/08 09:06:35;;;;;;;0.00;0.00;;;2.10;99.90;;;;;;6213295;23;20095;-82
2022/12/08 09:09:00;;;;;;;0.00;0.00;;;1.00;99.90;;;;;;6162865;23;20052;-83
2022/12/08 09:11:26;;;;;;;0.00;0.00;;;1.10;99.90;;;;;;6188125;23;20119;-82
2022/12/08 09:13:52;;;;;;;0.00;0.00;;;1.10;99.90;;;;;;6162715;23;20036;-83
2022/12/08 09:16:19;;;;;;;0.00;0.00;;;1.10;99.90;;;;;;6187998;23;20035;-82
2022/12/08 09:18:46;;;;;;;0.60;0.30;;;1.20;99.90;;;;;;6163641;23;20067;-83
2022/12/08 09:21:21;;;;;;;0.10;0.10;;;1.40;99.90;;;;;;6212860;23;20024;-82
2022/12/08 09:23:49;;;;;;;0.75;0.30;;;1.20;99.90;;;;;;6188115;23;20055;-81
2022/12/08 09:26:15;;;;;;;1.25;0.00;;;2.50;99.90;;;;;;6212883;23;20449;-81
2022/12/08 09:28:45;;;;;;;0.10;0.10;;;2.40;99.90;;;;;;6188365;23;20027;-81
2022/12/08 09:31:15;;;;;;;0.05;0.05;;;1.40;99.90;;;;;;6213121;23;20021;-81
2022/12/08 09:33:41;;;;;;;0.08;0.08;;;1.90;99.90;;;;;;6187867;23;20020;-82
2022/12/08 09:36:07;;;;;;;0.00;0.00;;;2.20;99.90;;;;;;6213193;23;20017;-81
2022/12/08 09:38:33;;;;;;;0.00;0.00;;;1.20;99.90;;;;;;6188445;23;20023;-81
2022/12/08 09:41:01;;;;;;;0.00;0.00;;;2.30;99.90;;;;;;6187919;23;20017;-81
2022/12/08 09:43:39;;;;;;;0.00;0.00;;;1.30;99.90;;;;;;6188723;23;20091;-81
2022/12/08 09:46:07;;;;;;;1.17;0.13;;;2.00;99.90;;;;;;6212752;23;20016;-81
2022/12/08 09:48:42;;;;;;;0.10;0.10;;;1.20;99.90;;;;;;6213376;23;20051;-81
2022/12/08 09:51:08;;;;;;;0.00;0.00;;;1.20;99.90;;;;;;6213155;23;20106;-81
2022/12/08 09:53:42;;;;;;;0.20;0.20;;;2.50;99.90;;;;;;6188216;23;20016;-82
2022/12/08 09:56:14;;;;;;;0.10;0.05;;;1.30;99.90;;;;;;6213740;23;20090;-81
2022/12/08 09:58:55;;;;;;;0.00;0.00;;;1.60;99.90;;;;;;6213274;23;20012;-82
2022/12/08 10:01:22;;;;;;;0.20;0.10;;;2.00;99.90;;;;;;6212558;23;20024;-81
2022/12/08 10:03:48;;;;;;;0.00;0.00;;;2.10;99.90;;;;;;6212926;23;20012;-81
2022/12/08 10:06:29;;;;;;;0.00;0.00;;;2.30;99.90;;;;;;6212648;23;20095;-82
2022/12/08 10:09:22;;;;;;;0.00;0.00;;;2.30;99.90;;;;;;6188405;23;20020;-83
2022/12/08 10:12:09;;;;;;;0.00;0.00;;;2.50;99.90;;;;;;6187236;23;20019;-83
2022/12/08 10:14:43;;;;;;;0.08;0.08;;;2.90;99.90;;;;;;6185167;23;20017;-83
2022/12/08 10:17:18;;;;;;;0.20;0.10;;;3.20;99.90;;;;;;6185865;23;20020;-82
2022/12/08 10:19:45;;;;;;;0.00;0.00;;;4.70;99.90;;;;;;6211221;23;20513;-82
2022/12/08 10:22:20;;;;;;;0.10;0.10;;;3.80;99.90;;;;;;6187115;23;20040;-85
2022/12/08 10:25:14;;;;;;;0.00;0.00;;;4.20;99.90;;;;;;6214793;23;20020;-82
2022/12/08 10:27:40;;;;;;;0.08;0.00;;;4.60;99.90;;;;;;6214957;23;20016;-81
2022/12/08 10:30:12;;;;;;;0.00;0.00;;;4.90;99.90;;;;;;6218399;23;20017;-84
2022/12/08 10:32:39;;;;;;;0.00;0.00;;;5.20;99.90;;;;;;6216079;23;20020;-85
2022/12/08 10:35:11;;;;;;;0.00;0.00;;;5.40;99.90;;;;;;6189088;23;20074;-85
2022/12/08 10:37:37;;;;;;;0.00;0.00;;;5.60;99.90;;;;;;6190108;23;20020;-85
2022/12/08 10:40:17;;;;;;;0.10;0.10;;;5.70;99.90;;;;;;6214890;23;20016;-85
2022/12/08 10:42:47;;;;;;;0.32;0.10;;;5.80;99.90;;;;;;6215296;23;20365;-86
2022/12/08 10:45:22;;;;;;;0.00;0.00;;;5.90;99.90;;;;;;6215449;23;20096;-86
2022/12/08 10:47:59;;;;;;;0.00;0.00;;;6.20;99.90;;;;;;6215776;23;20016;-86
2022/12/08 10:50:44;;;;;;;0.17;0.13;;;6.40;99.90;;;;;;6190056;23;20021;-83
2022/12/08 10:53:14;;;;;;;0.10;0.10;;;6.60;99.90;;;;;;6199521;23;20017;-85
2022/12/08 10:55:45;;;;;;;0.08;0.08;;;6.80;99.90;;;;;;6215572;23;20515;-85
2022/12/08 10:58:36;;;;;;;0.00;0.00;;;6.80;99.90;;;;;;6215005;23;20028;-86
2022/12/08 11:01:26;;;;;;;0.00;0.00;;;6.90;99.90;;;;;;6196995;23;20017;-85
2022/12/08 11:03:59;;;;;;;0.05;0.00;;;6.80;99.90;;;;;;6215278;23;20088;-85
2022/12/08 11:06:34;;;;;;;0.25;0.03;;;6.90;99.90;;;;;;6214663;23;20071;-86
2022/12/08 11:09:06;;;;;;;0.00;0.00;;;6.80;99.90;;;;;;6189432;23;20017;-83
2022/12/08 11:11:46;;;;;;;0.17;0.10;;;6.50;99.90;;;;;;6189551;23;20084;-84
2022/12/08 11:14:26;;;;;;;0.00;0.00;;;6.40;99.90;;;;;;6214497;23;20096;-86
2022/12/08 11:16:55;;;;;;;0.10;0.10;;;5.90;99.90;;;;;;6216807;23;20028;-86
2022/12/08 11:19:28;;;;;;;0.00;0.00;;;5.90;99.90;;;;;;6189767;23;20082;-85
2022/12/08 11:21:54;;;;;;;0.00;0.00;;;6.30;99.90;;;;;;6215285;23;20088;-85
2022/12/08 11:24:26;;;;;;;0.23;0.20;;;6.50;99.90;;;;;;6189730;23;20484;-85
2022/12/08 11:26:58;;;;;;;0.25;0.10;;;6.70;99.90;;;;;;6189940;23;20449;-85
2022/12/08 11:29:25;;;;;;;0.10;0.10;;;6.60;99.90;;;;;;6213938;23;20024;-85
2022/12/08 11:31:56;;;;;;;;;;;6.80;99.90;;;;;;6165099;23;20217;-85
2022/12/08 11:34:45;;;;;;;1.02;0.00;;;6.70;99.90;;;;;;6214812;23;19947;-85
2022/12/08 11:37:22;;;;;;;0.28;0.13;;;7.00;99.90;;;;;;6169360;23;20032;-85
2022/12/08 11:39:50;;;;;;;0.00;0.00;;;7.10;99.90;;;;;;6215082;23;20052;-85
2022/12/08 11:42:18;;;;;;;0.10;0.10;;;7.10;99.90;;;;;;6214408;23;20381;-85
2022/12/08 11:45:12;;;;;;;0.00;0.00;;;7.20;99.90;;;;;;6214549;23;20017;-85
2022/12/08 11:47:43;;;;;;;0.00;0.00;;;7.10;99.90;;;;;;6214284;23;20465;-87
2022/12/08 11:50:41;;;;;;;0.13;0.13;;;6.90;99.90;;;;;;6189398;23;20021;-85
2022/12/08 11:53:16;;;;;;;0.13;0.13;;;6.80;99.90;;;;;;6189467;23;20350;-87
2022/12/08 11:55:50;;;;;;;0.00;0.00;;;6.60;99.90;;;;;;6215256;23;20016;-86
2022/12/08 11:58:42;;;;;;;0.20;0.20;;;6.40;99.90;;;;;;6189550;23;20318;-85
2022/12/08 12:01:21;;;;;;;0.70;0.30;;;6.20;99.90;;;;;;6188073;23;20023;-86
2022/12/08 12:04:06;;;;;;;0.20;0.10;;;6.00;99.90;;;;;;6189434;23;20020;-85
2022/12/08 12:06:44;;;;;;;0.15;0.10;;;5.80;99.90;;;;;;6189404;23;20095;-85
2022/12/08 12:09:29;;;;;;;0.22;0.22;;;5.60;99.90;;;;;;6214460;23;20020;-87
2022/12/08 12:12:18;;;;;;;0.00;0.00;;;5.40;99.90;;;;;;6213906;23;20453;-88
2022/12/08 12:15:17;;;;;;;0.10;0.10;;;5.20;99.90;;;;;;6214208;23;20099;-86
2022/12/08 12:18:04;;;;;;;0.10;0.10;;;5.10;99.90;;;;;;6213510;23;20074;-87
2022/12/08 12:20:53;;;;;;;0.13;0.13;;;5.00;99.90;;;;;;6213560;23;20027;-89
2022/12/08 12:23:44;;;;;;;1.48;0.30;;;4.80;99.90;;;;;;6213605;23;20016;-88
2022/12/08 12:26:23;;;;;;;0.10;0.10;;;4.70;99.90;;;;;;6189233;23;20024;-84
2022/12/08 12:28:58;;;;;;;0.10;0.10;;;4.70;99.90;;;;;;6213479;23;20143;-86
2022/12/08 12:31:32;;;;;;;0.30;0.30;;;4.60;99.90;;;;;;6213448;23;20103;-87
2022/12/08 12:34:18;;;;;;;0.15;0.15;;;4.20;99.90;;;;;;6189447;23;20015;-87
2022/12/08 12:36:50;;;;;;;0.28;0.28;;;4.50;99.90;;;;;;6188813;23;20012;-87
2022/12/08 12:39:20;;;;;;;0.20;0.17;;;4.50;99.90;;;;;;6189314;23;20056;-87
2022/12/08 12:41:53;;;;;;;0.28;0.28;;;4.50;99.90;;;;;;6214090;23;20013;-86
2022/12/08 12:44:28;;;;;;;0.43;0.32;;;4.50;99.90;;;;;;6214624;23;20043;-86
2022/12/08 12:46:58;;;;;;;0.30;0.30;;;4.80;99.90;;;;;;6189697;23;20020;-86
2022/12/08 12:49:39;;;;;;;0.30;0.25;;;4.70;99.90;;;;;;6188833;23;20449;-87
2022/12/08 12:52:20;;;;;;;0.05;0.05;;;4.80;99.90;;;;;;6189081;23;20060;-86
2022/12/08 12:54:48;;;;;;;0.05;0.05;;;4.80;99.90;;;;;;6214370;23;20338;-86
2022/12/08 12:57:23;;;;;;;0.10;0.10;;;4.90;99.90;;;;;;6214667;23;20016;-86
2022/12/08 12:59:52;;;;;;;0.30;0.10;;;5.10;99.90;;;;;;6189623;23;20024;-87
2022/12/08 13:02:47;;;;;;;0.00;0.00;;;5.30;99.90;;;;;;6189430;23;20024;-87
2022/12/08 13:05:26;;;;;;;0.00;0.00;;;5.70;99.90;;;;;;6210423;23;20012;-87
2022/12/08 13:08:02;;;;;;;0.00;0.00;;;5.90;99.90;;;;;;6189329;23;20020;-87
2022/12/08 13:10:59;;;;;;;0.05;0.00;;;6.20;99.90;;;;;;6214176;23;20048;-87
2022/12/08 13:13:26;;;;;;;0.00;0.00;;;6.50;99.90;;;;;;6202941;23;20509;-88
2022/12/08 13:16:00;;;;;;;0.00;0.00;;;6.80;99.90;;;;;;6164825;23;20012;-87
2022/12/08 13:18:45;;;;;;;0.00;0.00;;;7.00;99.90;;;;;;6188811;23;20020;-87
2022/12/08 13:21:16;;;;;;;0.00;0.00;;;7.30;99.90;;;;;;6214278;23;20021;-87